Time;durP1;ratioP1;P1;durP2;ratioP2;P2;SDS_P1;SDS_P2;PMS_P1;PMS_P2;Temp;Humidity;BMP_temperature;BMP_pressure;BME280_temperature;BME280_humidity;BME280_pressure;Samples;Min_cycle;Max_cycle;Signal;HPM_P1;HPM_P2
2023/11/02 00:02:20;;;;;;;0.47;0.47;;;;;;;2.43;100.00;96704.09;5003258;28;20083;-77
2023/11/02 00:04:47;;;;;;;0.40;0.40;;;;;;;2.39;100.00;96705.59;5035968;28;20132;-77
2023/11/02 00:07:14;;;;;;;0.40;0.40;;;;;;;2.50;100.00;96706.69;5019811;28;20041;-77
2023/11/02 00:09:39;;;;;;;0.43;0.43;;;;;;;2.55;100.00;96706.81;5048290;28;20107;-78
2023/11/02 00:12:09;;;;;;;0.40;0.40;;;;;;;2.51;100.00;96697.69;5056833;28;20029;-77
2023/11/02 00:14:46;;;;;;;0.40;0.40;;;;;;;2.46;100.00;96708.97;5040284;28;20033;-78
2023/11/02 00:17:30;;;;;;;0.50;0.50;;;;;;;2.55;100.00;96704.97;5055592;28;20036;-78
2023/11/02 00:19:56;;;;;;;0.40;0.40;;;;;;;2.75;100.00;96711.84;5039764;28;20029;-78
2023/11/02 00:22:22;;;;;;;0.40;0.40;;;;;;;2.91;100.00;96711.22;5017977;28;20046;-79
2023/11/02 00:24:49;;;;;;;0.40;0.40;;;;;;;2.99;100.00;96710.91;5018916;28;20459;-78
2023/11/02 00:27:15;;;;;;;0.50;0.50;;;;;;;2.98;100.00;96703.16;5035118;28;20116;-78
2023/11/02 00:29:44;;;;;;;0.40;0.40;;;;;;;2.93;100.00;96692.41;5035571;28;20105;-78
2023/11/02 00:32:09;;;;;;;0.50;0.50;;;;;;;2.87;100.00;96694.13;5035423;28;20044;-79
2023/11/02 00:34:39;;;;;;;0.40;0.40;;;;;;;2.85;100.00;96696.19;5035247;28;20025;-78
2023/11/02 00:37:08;;;;;;;0.50;0.50;;;;;;;2.84;100.00;96686.63;5018170;28;20087;-78
2023/11/02 00:39:34;;;;;;;0.50;0.50;;;;;;;2.81;100.00;96687.09;5037834;28;20065;-78
2023/11/02 00:41:59;;;;;;;0.50;0.50;;;;;;;2.71;100.00;96682.31;5018920;28;20124;-78
2023/11/02 00:44:26;;;;;;;0.40;0.40;;;;;;;2.69;100.00;96686.22;5018616;28;20026;-78
2023/11/02 00:46:52;;;;;;;0.40;0.40;;;;;;;2.65;100.00;96675.28;5030735;28;20036;-78
2023/11/02 00:49:20;;;;;;;0.40;0.40;;;;;;;2.66;100.00;96679.53;5021289;28;20037;-78
2023/11/02 00:51:55;;;;;;;0.40;0.40;;;;;;;2.64;100.00;96671.78;5051852;28;20142;-77
2023/11/02 00:54:52;;;;;;;0.40;0.40;;;;;;;2.71;100.00;96674.34;5002775;28;20460;-80
2023/11/02 00:57:21;;;;;;;0.50;0.50;;;;;;;2.69;100.00;96670.31;5048634;28;20061;-78
2023/11/02 00:59:52;;;;;;;0.50;0.50;;;;;;;2.63;100.00;96672.84;5038410;28;20048;-79
2023/11/02 01:02:18;;;;;;;0.50;0.50;;;;;;;2.68;100.00;96671.38;5038147;28;20028;-78
2023/11/02 01:04:43;;;;;;;0.40;0.40;;;;;;;2.70;100.00;96671.91;5038561;28;20037;-77
2023/11/02 01:07:14;;;;;;;0.50;0.50;;;;;;;2.70;100.00;96669.28;5053959;28;20029;-79
2023/11/02 01:09:53;;;;;;;0.40;0.40;;;;;;;2.70;100.00;96671.91;4998876;28;20144;-77
2023/11/02 01:12:37;;;;;;;0.50;0.50;;;;;;;2.65;100.00;96669.97;5023255;28;20132;-78
2023/11/02 01:15:13;;;;;;;0.50;0.50;;;;;;;2.70;100.00;96672.75;5002324;28;20136;-78
2023/11/02 01:17:40;;;;;;;0.50;0.50;;;;;;;2.66;100.00;96678.72;5018989;28;20468;-78
2023/11/02 01:20:13;;;;;;;0.40;0.40;;;;;;;2.57;100.00;96660.50;5018340;28;20468;-78
2023/11/02 01:22:52;;;;;;;0.40;0.40;;;;;;;2.61;100.00;96658.19;5018598;28;20045;-77
2023/11/02 01:25:18;;;;;;;0.50;0.50;;;;;;;2.61;100.00;96669.59;5002749;28;20136;-78
2023/11/02 01:27:46;;;;;;;0.40;0.40;;;;;;;2.56;100.00;96672.09;5051095;28;20029;-78
2023/11/02 01:30:18;;;;;;;0.50;0.50;;;;;;;2.54;100.00;96674.19;5050527;28;20486;-78
2023/11/02 01:32:45;;;;;;;0.40;0.40;;;;;;;2.47;100.00;96665.50;5034831;28;20033;-77
2023/11/02 01:35:56;;;;;;;0.40;0.40;;;;;;;2.53;100.00;96666.44;5018350;28;20033;-79
2023/11/02 01:38:23;;;;;;;0.45;0.45;;;;;;;2.53;100.00;96667.25;5031814;28;20045;-78
2023/11/02 01:40:52;;;;;;;0.47;0.47;;;;;;;2.50;100.00;96661.59;5034413;28;20056;-78
2023/11/02 01:43:40;;;;;;;0.40;0.40;;;;;;;2.57;100.00;96675.59;4982226;28;20045;-78
2023/11/02 01:46:13;;;;;;;0.40;0.40;;;;;;;2.62;100.00;96673.88;5004115;28;20033;-77
2023/11/02 01:48:47;;;;;;;0.40;0.40;;;;;;;2.77;100.00;96678.75;5014219;28;20022;-77
2023/11/02 01:51:18;;;;;;;0.43;0.43;;;;;;;2.86;100.00;96681.91;5013285;28;20083;-78
2023/11/02 01:53:57;;;;;;;0.40;0.40;;;;;;;3.01;100.00;96681.47;4981844;28;20124;-77
2023/11/02 01:56:41;;;;;;;0.40;0.40;;;;;;;3.06;100.00;96682.41;5001466;28;20029;-77
2023/11/02 01:59:17;;;;;;;0.50;0.50;;;;;;;3.07;100.00;96677.94;5017124;28;20033;-77
2023/11/02 02:02:05;;;;;;;0.40;0.40;;;;;;;3.23;100.00;96684.41;5017806;28;20033;-77
2023/11/02 02:04:38;;;;;;;0.50;0.50;;;;;;;3.29;100.00;96686.94;5030922;28;20034;-79
2023/11/02 02:07:11;;;;;;;0.50;0.50;;;;;;;3.38;100.00;96699.88;5023981;28;20129;-77
2023/11/02 02:09:53;;;;;;;;;;;;;;;3.35;100.00;96703.81;5015651;28;20091;-78
2023/11/02 02:12:36;;;;;;;2.78;2.67;;;;;;;3.28;100.00;96690.66;5013101;28;19917;-77
2023/11/02 02:15:10;;;;;;;0.40;0.40;;;;;;;3.21;100.00;96687.28;5015158;28;20124;-77
2023/11/02 02:18:10;;;;;;;0.40;0.40;;;;;;;3.15;100.00;96685.56;5034089;28;20052;-77
2023/11/02 02:20:37;;;;;;;0.40;0.40;;;;;;;3.06;100.00;96679.75;5031844;28;20464;-77
2023/11/02 02:23:14;;;;;;;0.40;0.40;;;;;;;2.99;100.00;96671.09;4999663;28;20133;-77
2023/11/02 02:25:55;;;;;;;0.50;0.50;;;;;;;2.97;100.00;96675.00;5033514;28;20028;-77
2023/11/02 02:28:58;;;;;;;0.40;0.40;;;;;;;2.98;100.00;96669.47;5015559;28;20048;-77
2023/11/02 02:31:40;;;;;;;0.43;0.43;;;;;;;3.00;100.00;96678.00;5031412;28;20061;-77
2023/11/02 02:34:25;;;;;;;4.97;4.82;;;;;;;2.93;100.00;96672.00;5034138;28;20030;-77
2023/11/02 02:36:57;;;;;;;0.40;0.40;;;;;;;2.85;100.00;96673.13;5015672;28;20103;-77
2023/11/02 02:39:25;;;;;;;0.50;0.50;;;;;;;2.77;100.00;96656.72;5032017;28;20039;-77
2023/11/02 02:41:56;;;;;;;0.40;0.40;;;;;;;2.78;100.00;96669.78;5016220;28;20026;-77
2023/11/02 02:44:23;;;;;;;0.50;0.50;;;;;;;2.76;100.00;96665.72;5030795;28;20069;-77
2023/11/02 02:46:49;;;;;;;0.47;0.47;;;;;;;2.78;100.00;96675.09;4983707;28;20041;-78
2023/11/02 02:49:15;;;;;;;0.40;0.40;;;;;;;2.71;100.00;96658.44;4998924;28;20041;-78
2023/11/02 02:51:44;;;;;;;0.40;0.40;;;;;;;2.61;100.00;96661.63;5016360;28;20041;-77
2023/11/02 02:54:17;;;;;;;0.50;0.50;;;;;;;2.68;100.00;96660.75;5030181;28;20086;-77
2023/11/02 02:56:45;;;;;;;0.50;0.50;;;;;;;2.73;100.00;96663.53;5015683;28;20032;-77
2023/11/02 02:59:16;;;;;;;0.43;0.43;;;;;;;2.78;100.00;96669.78;5032122;28;20094;-77
2023/11/02 03:01:45;;;;;;;0.40;0.40;;;;;;;2.81;100.00;96668.53;4984179;28;20037;-76
2023/11/02 03:04:13;;;;;;;0.40;0.40;;;;;;;2.81;100.00;96668.53;4999220;28;20078;-77
2023/11/02 03:06:44;;;;;;;0.40;0.40;;;;;;;2.78;100.00;96675.09;5033824;28;20025;-77
2023/11/02 03:09:15;;;;;;;0.50;0.50;;;;;;;2.77;100.00;96677.94;5008683;28;20042;-77
2023/11/02 03:11:45;;;;;;;0.40;0.40;;;;;;;2.81;100.00;96674.63;5031383;28;20119;-78
2023/11/02 03:14:12;;;;;;;0.40;0.40;;;;;;;2.78;100.00;96675.09;5016134;28;20029;-78
2023/11/02 03:16:40;;;;;;;0.50;0.50;;;;;;;2.78;100.00;96668.94;5017089;28;20072;-77
2023/11/02 03:19:05;;;;;;;0.40;0.40;;;;;;;2.89;100.00;96673.50;5063377;28;20033;-77
2023/11/02 03:21:34;;;;;;;0.50;0.50;;;;;;;2.96;100.00;96676.84;5016454;28;20018;-77
2023/11/02 03:24:12;;;;;;;0.40;0.40;;;;;;;3.02;100.00;96683.91;5031139;28;20044;-79
2023/11/02 03:26:45;;;;;;;0.40;0.40;;;;;;;3.12;100.00;96677.22;5013083;28;20111;-77
2023/11/02 03:29:24;;;;;;;0.50;0.50;;;;;;;3.13;100.00;96684.97;5013449;28;20041;-77
2023/11/02 03:32:16;;;;;;;0.40;0.40;;;;;;;3.16;100.00;96676.53;5000002;28;20068;-77
2023/11/02 03:34:41;;;;;;;0.40;0.40;;;;;;;3.13;100.00;96677.00;5014147;28;20076;-76
2023/11/02 03:37:16;;;;;;;0.40;0.40;;;;;;;3.05;100.00;96675.50;5031496;28;20306;-77
2023/11/02 03:39:59;;;;;;;0.50;0.50;;;;;;;3.03;100.00;96671.44;5031607;28;20048;-77
2023/11/02 03:42:33;;;;;;;0.43;0.43;;;;;;;3.08;100.00;96683.00;5032169;28;20121;-77
2023/11/02 03:45:29;;;;;;;0.40;0.40;;;;;;;3.18;100.00;96685.09;5017490;28;20037;-77
2023/11/02 03:48:58;;;;;;;0.50;0.50;;;;;;;3.24;100.00;96678.06;4997973;28;20129;-78
2023/11/02 03:51:39;;;;;;;0.40;0.40;;;;;;;3.21;100.00;96683.84;5025590;28;20049;-77
2023/11/02 03:54:34;;;;;;;0.40;0.40;;;;;;;3.16;100.00;96683.72;5006099;28;20056;-77
2023/11/02 03:57:15;;;;;;;0.40;0.40;;;;;;;3.05;100.00;96685.31;5022227;28;20099;-77
2023/11/02 04:00:09;;;;;;;0.40;0.40;;;;;;;3.00;100.00;96678.00;5039132;28;20087;-78
2023/11/02 04:02:41;;;;;;;0.40;0.40;;;;;;;2.92;100.00;96669.59;5029041;28;20549;-77
2023/11/02 04:05:19;;;;;;;0.40;0.40;;;;;;;2.90;100.00;96671.66;4992169;28;20087;-77
2023/11/02 04:08:10;;;;;;;0.40;0.40;;;;;;;2.89;100.00;96670.84;5032176;28;20078;-77
2023/11/02 04:10:40;;;;;;;0.50;0.50;;;;;;;2.97;100.00;96667.84;5042457;28;20074;-77
2023/11/02 04:13:17;;;;;;;0.40;0.40;;;;;;;3.08;100.00;96682.19;4982310;28;20045;-77
2023/11/02 04:15:42;;;;;;;0.40;0.40;;;;;;;3.17;100.00;96687.97;5014442;28;20091;-78
2023/11/02 04:18:10;;;;;;;0.40;0.40;;;;;;;3.14;100.00;96688.44;5028951;28;20256;-79
2023/11/02 04:20:39;;;;;;;0.50;0.50;;;;;;;3.06;100.00;96687.72;5030633;28;20045;-77
2023/11/02 04:23:04;;;;;;;0.40;0.40;;;;;;;3.04;100.00;96688.97;5032787;28;20423;-77
2023/11/02 04:25:30;;;;;;;0.40;0.40;;;;;;;2.99;100.00;96684.38;5019430;28;20075;-77
2023/11/02 04:27:57;;;;;;;0.45;0.45;;;;;;;2.97;100.00;96694.41;5020250;28;20060;-77
2023/11/02 04:30:25;;;;;;;0.40;0.40;;;;;;;3.05;100.00;96696.72;5027057;28;20061;-78
2023/11/02 04:32:50;;;;;;;0.40;0.40;;;;;;;3.06;100.00;96702.84;5017558;28;20041;-77
2023/11/02 04:35:16;;;;;;;0.50;0.50;;;;;;;3.03;100.00;96700.63;5001980;28;20033;-76
2023/11/02 04:37:41;;;;;;;0.40;0.40;;;;;;;2.98;100.00;96703.97;5019164;28;20037;-77
2023/11/02 04:40:08;;;;;;;0.50;0.50;;;;;;;3.05;100.00;96712.63;5031957;28;20044;-77
2023/11/02 04:42:34;;;;;;;0.50;0.50;;;;;;;3.03;100.00;96704.09;5056240;28;20025;-77
2023/11/02 04:45:02;;;;;;;0.40;0.40;;;;;;;3.05;100.00;96710.00;5023773;28;20037;-77
2023/11/02 04:47:27;;;;;;;0.40;0.40;;;;;;;3.01;100.00;96708.00;5018827;28;20036;-77
2023/11/02 04:49:53;;;;;;;0.40;0.40;;;;;;;3.09;100.00;96710.34;5033141;28;20033;-77
2023/11/02 04:52:18;;;;;;;0.40;0.40;;;;;;;3.11;100.00;96720.72;5002530;28;20124;-77
2023/11/02 04:54:44;;;;;;;0.40;0.40;;;;;;;3.11;100.00;96716.22;5033996;28;20030;-77
2023/11/02 04:57:10;;;;;;;0.40;0.40;;;;;;;3.09;100.00;96711.13;5033988;28;20057;-77
2023/11/02 04:59:41;;;;;;;0.50;0.50;;;;;;;3.05;100.00;96709.19;5018885;28;20478;-77
2023/11/02 05:02:07;;;;;;;0.40;0.40;;;;;;;3.01;100.00;96711.47;5055045;28;20025;-76
2023/11/02 05:04:33;;;;;;;0.40;0.40;;;;;;;2.89;100.00;96696.56;5032716;28;20132;-77
2023/11/02 05:06:58;;;;;;;0.47;0.47;;;;;;;2.93;100.00;96708.34;5018315;28;20130;-78
2023/11/02 05:09:25;;;;;;;0.40;0.40;;;;;;;3.05;100.00;96711.84;4999313;28;20434;-77
2023/11/02 05:11:51;;;;;;;0.40;0.40;;;;;;;3.12;100.00;96714.38;5016363;28;20036;-77
2023/11/02 05:14:17;;;;;;;0.50;0.50;;;;;;;3.04;100.00;96710.19;5018474;28;20030;-77
2023/11/02 05:16:42;;;;;;;0.50;0.50;;;;;;;2.94;100.00;96710.78;5040969;28;20064;-77
2023/11/02 05:19:10;;;;;;;0.50;0.50;;;;;;;2.86;100.00;96716.41;5051796;28;20037;-77
2023/11/02 05:21:36;;;;;;;0.40;0.40;;;;;;;2.85;100.00;96714.75;5033579;28;20038;-77
2023/11/02 05:24:03;;;;;;;0.50;0.50;;;;;;;2.89;100.00;96715.94;5000986;28;20037;-77
2023/11/02 05:26:31;;;;;;;0.40;0.40;;;;;;;2.87;100.00;96725.97;5036317;28;20036;-77
2023/11/02 05:28:57;;;;;;;0.40;0.40;;;;;;;2.96;100.00;96729.91;5042386;28;20724;-78
2023/11/02 05:31:23;;;;;;;0.40;0.40;;;;;;;3.05;100.00;96741.84;5008362;28;20049;-78
2023/11/02 05:33:49;;;;;;;0.32;0.32;;;;;;;3.13;100.00;96737.25;4998934;28;20042;-77
2023/11/02 05:36:14;;;;;;;0.50;0.50;;;;;;;3.15;100.00;96745.78;5001882;28;20032;-77
2023/11/02 05:38:40;;;;;;;0.40;0.40;;;;;;;3.15;100.00;96753.72;5015923;28;20033;-78
2023/11/02 05:41:15;;;;;;;0.40;0.40;;;;;;;3.07;100.00;96752.22;5035861;28;20123;-76
2023/11/02 05:43:42;;;;;;;0.43;0.43;;;;;;;3.02;100.00;96747.59;5055378;28;20098;-78
2023/11/02 05:46:08;;;;;;;0.40;0.40;;;;;;;2.87;100.00;96752.50;5013453;28;20069;-77
2023/11/02 05:48:33;;;;;;;0.40;0.40;;;;;;;2.73;100.00;96757.19;5030242;28;20472;-79
2023/11/02 05:51:01;;;;;;;0.40;0.40;;;;;;;2.60;100.00;96755.50;5000924;28;20116;-77
2023/11/02 05:53:27;;;;;;;0.43;0.43;;;;;;;2.50;100.00;96751.75;4998145;28;20037;-77
2023/11/02 05:55:52;;;;;;;0.43;0.43;;;;;;;2.48;100.00;96759.13;5012550;28;20055;-77
2023/11/02 05:58:18;;;;;;;0.50;0.50;;;;;;;2.35;100.00;96752.13;5032589;28;20064;-77
2023/11/02 06:00:44;;;;;;;0.40;0.40;;;;;;;2.30;100.00;96755.47;5011209;28;20374;-77
2023/11/02 06:03:09;;;;;;;0.40;0.40;;;;;;;2.31;100.00;96757.06;5033900;28;20038;-78
2023/11/02 06:05:35;;;;;;;0.43;0.43;;;;;;;2.30;100.00;96757.28;5030766;28;20101;-77
2023/11/02 06:08:00;;;;;;;0.40;0.40;;;;;;;2.39;100.00;96759.41;5031382;28;20095;-78
2023/11/02 06:10:29;;;;;;;0.40;0.40;;;;;;;2.45;100.00;96760.38;4999963;28;20113;-77
2023/11/02 06:12:55;;;;;;;0.40;0.40;;;;;;;2.53;100.00;96761.91;4998517;28;20391;-77
2023/11/02 06:15:23;;;;;;;0.43;0.43;;;;;;;2.60;100.00;96762.66;5017679;28;20108;-77
2023/11/02 06:17:49;;;;;;;0.40;0.40;;;;;;;2.73;100.00;96766.97;5019243;28;20045;-79
2023/11/02 06:20:15;;;;;;;0.40;0.40;;;;;;;2.84;100.00;96759.06;4997328;28;20037;-76
2023/11/02 06:22:41;;;;;;;0.40;0.40;;;;;;;2.83;100.00;96767.22;5000721;28;20041;-77
2023/11/02 06:25:08;;;;;;;0.40;0.40;;;;;;;2.81;100.00;96758.72;5030041;28;20030;-77
2023/11/02 06:27:34;;;;;;;0.40;0.40;;;;;;;2.84;100.00;96764.38;5031973;28;20037;-79
2023/11/02 06:29:59;;;;;;;0.40;0.40;;;;;;;2.77;100.00;96776.09;4999913;28;20044;-76
2023/11/02 06:32:25;;;;;;;0.50;0.50;;;;;;;2.66;100.00;96776.84;5032562;28;20506;-77
2023/11/02 06:34:51;;;;;;;0.40;0.40;;;;;;;2.56;100.00;96777.38;5016528;28;20048;-81
2023/11/02 06:38:08;;;;;;;;;;;;;;;;;;;;;
2023/11/02 06:40:44;;;;;;;0.40;0.40;;;;;;;2.57;100.00;96779.81;5018122;28;20049;-77
2023/11/02 06:43:09;;;;;;;0.40;0.40;;;;;;;2.62;100.00;96787.13;5028898;28;20036;-77
2023/11/02 06:45:35;;;;;;;0.40;0.40;;;;;;;2.52;100.00;96777.03;5016247;28;20511;-76
2023/11/02 06:48:01;;;;;;;0.40;0.40;;;;;;;2.50;100.00;96781.72;5030574;28;20124;-76
2023/11/02 06:50:32;;;;;;;0.50;0.50;;;;;;;2.38;100.00;96772.88;5016150;28;20506;-79
2023/11/02 06:53:00;;;;;;;0.50;0.50;;;;;;;2.25;100.00;96775.69;5029948;28;20044;-76
2023/11/02 06:55:26;;;;;;;0.50;0.50;;;;;;;2.16;100.00;96781.28;5016732;28;20482;-79
2023/11/02 06:57:52;;;;;;;0.47;0.47;;;;;;;2.06;100.00;96778.31;5028005;28;20033;-79
2023/11/02 07:00:18;;;;;;;0.40;0.40;;;;;;;1.89;100.00;96767.47;5032636;28;20033;-78
2023/11/02 07:02:45;;;;;;;0.50;0.50;;;;;;;2.04;100.00;96785.69;5034886;28;20528;-79
2023/11/02 07:05:10;;;;;;;0.50;0.50;;;;;;;2.12;100.00;96792.56;5010158;28;20038;-76
2023/11/02 07:07:38;;;;;;;0.50;0.50;;;;;;;2.01;100.00;96788.75;5013727;28;20567;-76
2023/11/02 07:10:14;;;;;;;0.50;0.50;;;;;;;1.87;100.00;96795.22;5007116;28;20068;-77
2023/11/02 07:12:42;;;;;;;0.50;0.50;;;;;;;1.83;100.00;96804.66;5032629;28;20037;-79
2023/11/02 07:15:08;;;;;;;0.90;0.90;;;;;;;1.91;100.00;96805.16;5053639;28;20061;-76
2023/11/02 07:17:34;;;;;;;0.40;0.40;;;;;;;2.21;100.00;96825.69;5000737;28;20037;-79
2023/11/02 07:20:04;;;;;;;0.43;0.43;;;;;;;2.60;100.00;96827.09;5027382;28;20041;-80
2023/11/02 07:22:39;;;;;;;0.40;0.40;;;;;;;2.77;100.00;96822.00;5033576;28;20037;-78
2023/11/02 07:25:05;;;;;;;0.40;0.40;;;;;;;2.86;100.00;96814.56;5019625;28;20379;-76
2023/11/02 07:27:32;;;;;;;0.40;0.40;;;;;;;2.86;100.00;96820.69;5035925;28;20364;-78
2023/11/02 07:29:59;;;;;;;0.40;0.40;;;;;;;2.70;100.00;96815.97;5052543;28;20548;-78
2023/11/02 07:32:25;;;;;;;0.50;0.50;;;;;;;2.56;100.00;96819.81;5004197;28;20124;-78
2023/11/02 07:34:51;;;;;;;0.40;0.40;;;;;;;2.40;100.00;96826.50;4999821;28;20048;-78
2023/11/02 07:37:16;;;;;;;0.50;0.50;;;;;;;2.20;100.00;96826.72;5016038;28;20037;-80
2023/11/02 07:39:43;;;;;;;0.40;0.40;;;;;;;2.02;100.00;96824.03;5044563;28;20040;-79
2023/11/02 07:42:08;;;;;;;0.50;0.50;;;;;;;1.88;100.00;96823.31;5018920;28;20035;-78
2023/11/02 07:44:35;;;;;;;0.50;0.50;;;;;;;1.88;100.00;96833.91;5035905;28;20037;-78
2023/11/02 07:47:00;;;;;;;0.50;0.50;;;;;;;1.90;100.00;96831.88;5035658;28;20033;-79
2023/11/02 07:49:26;;;;;;;0.40;0.40;;;;;;;2.01;100.00;96825.03;5009007;28;20045;-79
2023/11/02 07:51:52;;;;;;;0.50;0.50;;;;;;;2.06;100.00;96833.16;5030806;28;20357;-78
2023/11/02 07:54:17;;;;;;;0.50;0.50;;;;;;;2.24;100.00;96840.34;5013599;28;20029;-75
2023/11/02 07:56:44;;;;;;;0.40;0.40;;;;;;;2.56;100.00;96841.81;5036086;28;20430;-76
2023/11/02 07:59:11;;;;;;;0.40;0.40;;;;;;;2.84;100.00;96851.91;5032385;28;20026;-76
2023/11/02 08:01:38;;;;;;;0.40;0.40;;;;;;;3.14;100.00;96851.13;5016399;28;20400;-76
2023/11/02 08:04:03;;;;;;;0.50;0.50;;;;;;;3.21;100.00;96848.41;5015617;28;20022;-76
2023/11/02 08:06:31;;;;;;;0.40;0.40;;;;;;;3.07;100.00;96853.88;5016500;28;20029;-75
2023/11/02 08:08:57;;;;;;;0.40;0.40;;;;;;;2.90;100.00;96849.41;5037985;28;20123;-75
2023/11/02 08:11:23;;;;;;;0.40;0.40;;;;;;;2.76;100.00;96851.41;5056022;28;20428;-75
2023/11/02 08:13:50;;;;;;;0.50;0.50;;;;;;;2.78;100.00;96859.94;5039501;28;20106;-75
2023/11/02 08:16:20;;;;;;;0.50;0.50;;;;;;;2.89;100.00;96853.09;5056988;28;20052;-75
2023/11/02 08:18:46;;;;;;;0.50;0.50;;;;;;;2.86;100.00;96857.81;5053562;28;20029;-76
2023/11/02 08:21:11;;;;;;;0.50;0.50;;;;;;;2.84;100.00;96865.19;5019247;28;20472;-75
2023/11/02 08:23:37;;;;;;;0.40;0.40;;;;;;;2.97;100.00;96858.91;5002958;28;20037;-76
2023/11/02 08:26:03;;;;;;;0.50;0.50;;;;;;;3.07;100.00;96856.53;5035839;28;20037;-75
2023/11/02 08:28:28;;;;;;;0.40;0.40;;;;;;;3.23;100.00;96867.59;5036863;28;20530;-76
2023/11/02 08:30:55;;;;;;;0.43;0.43;;;;;;;3.35;100.00;96863.13;5037931;28;20057;-75
2023/11/02 08:33:21;;;;;;;0.40;0.40;;;;;;;3.55;100.00;96848.72;5039098;28;20102;-75
2023/11/02 08:35:46;;;;;;;0.50;0.50;;;;;;;3.56;100.00;96858.34;5038640;28;20471;-76
2023/11/02 08:38:12;;;;;;;0.50;0.50;;;;;;;3.65;100.00;96855.16;5052231;28;20029;-77
2023/11/02 08:40:37;;;;;;;0.40;0.40;;;;;;;3.94;100.00;96864.09;5018646;28;20091;-75
2023/11/02 08:43:03;;;;;;;0.40;0.40;;;;;;;4.24;100.00;96865.84;5031045;28;20040;-76
2023/11/02 08:45:29;;;;;;;0.40;0.40;;;;;;;4.49;100.00;96856.81;5038491;28;20396;-75
2023/11/02 08:47:54;;;;;;;0.40;0.40;;;;;;;4.82;100.00;96862.34;5055276;28;20065;-75
2023/11/02 08:50:20;;;;;;;0.40;0.40;;;;;;;5.13;100.00;96868.25;5041009;28;20030;-75
2023/11/02 08:52:46;;;;;;;0.40;0.40;;;;;;;5.28;100.00;96857.91;5018914;28;20132;-76
2023/11/02 08:55:12;;;;;;;0.50;0.50;;;;;;;5.40;100.00;96865.03;5018815;28;20060;-75
2023/11/02 08:57:37;;;;;;;0.45;0.45;;;;;;;5.37;100.00;96862.84;5018910;28;20047;-77
2023/11/02 09:00:05;;;;;;;0.40;0.40;;;;;;;5.34;100.00;96864.13;5035969;28;20468;-75
2023/11/02 09:02:32;;;;;;;0.40;0.40;;;;;;;5.39;100.00;96860.75;5031835;28;20135;-75
2023/11/02 09:04:57;;;;;;;0.50;0.50;;;;;;;5.29;100.00;96854.22;5038367;28;20087;-75
2023/11/02 09:07:23;;;;;;;0.50;0.50;;;;;;;5.20;100.00;96855.63;5053935;28;20025;-76
2023/11/02 09:09:48;;;;;;;0.50;0.50;;;;;;;5.55;100.00;96859.19;5054583;28;20033;-76
2023/11/02 09:12:14;;;;;;;0.50;0.50;;;;;;;6.49;100.00;96869.28;5038408;28;20123;-76
2023/11/02 09:14:40;;;;;;;0.50;0.50;;;;;;;7.30;100.00;96871.38;5020101;28;20396;-77
2023/11/02 09:17:06;;;;;;;0.40;0.40;;;;;;;8.11;100.00;96876.72;5034746;28;20033;-76
2023/11/02 09:19:31;;;;;;;0.40;0.40;;;;;;;8.59;100.00;96881.13;5036449;28;20037;-77
2023/11/02 09:21:58;;;;;;;0.40;0.40;;;;;;;7.98;100.00;96882.50;5018432;28;20129;-77
2023/11/02 09:24:23;;;;;;;0.40;0.40;;;;;;;7.18;100.00;96891.03;5018216;28;20038;-77
2023/11/02 09:26:49;;;;;;;0.40;0.40;;;;;;;6.79;100.00;96887.59;5019187;28;20080;-76
2023/11/02 09:29:16;;;;;;;0.40;0.40;;;;;;;7.14;100.00;96881.88;5017814;28;20025;-76
2023/11/02 09:31:43;;;;;;;0.50;0.50;;;;;;;7.96;100.00;96880.06;5035675;28;20473;-76
2023/11/02 09:34:10;;;;;;;0.40;0.40;;;;;;;8.37;100.00;96878.53;5050991;28;20037;-76
2023/11/02 09:36:37;;;;;;;0.40;0.40;;;;;;;8.54;100.00;96885.66;5018329;28;20063;-76
2023/11/02 09:39:07;;;;;;;0.40;0.40;;;;;;;9.06;100.00;96876.03;5029085;28;20030;-77
2023/11/02 09:41:36;;;;;;;0.50;0.50;;;;;;;8.63;100.00;96883.31;5034911;28;20495;-78
2023/11/02 09:44:04;;;;;;;0.47;0.47;;;;;;;9.16;100.00;96884.13;5001644;28;20047;-76
2023/11/02 09:46:29;;;;;;;0.43;0.43;;;;;;;9.25;100.00;96891.38;5033642;28;20072;-78
2023/11/02 09:48:55;;;;;;;0.50;0.50;;;;;;;9.06;100.00;96892.91;5034250;28;20431;-76
2023/11/02 09:51:22;;;;;;;0.40;0.40;;;;;;;8.37;100.00;96899.97;5033820;28;20033;-77
2023/11/02 09:53:47;;;;;;;0.30;0.30;;;;;;;7.91;100.00;96902.25;5035113;28;20061;-77
2023/11/02 09:56:14;;;;;;;0.50;0.50;;;;;;;7.74;100.00;96898.88;5017631;28;20123;-76
2023/11/02 09:58:40;;;;;;;0.50;0.50;;;;;;;7.84;100.00;96901.63;5033478;28;20118;-77
2023/11/02 10:01:11;;;;;;;0.40;0.40;;;;;;;7.90;100.00;96905.16;5033351;28;20037;-78
2023/11/02 10:03:37;;;;;;;0.50;0.50;;;;;;;9.17;100.00;96899.94;5049900;28;20060;-77
2023/11/02 10:06:05;;;;;;;0.50;0.50;;;;;;;10.15;100.00;96892.13;5066779;28;20446;-77
2023/11/02 10:08:33;;;;;;;0.50;0.50;;;;;;;10.57;100.00;96903.44;5051810;28;20100;-77
2023/11/02 10:11:14;;;;;;;0.50;0.50;;;;;;;11.19;100.00;96898.75;5035181;28;20040;-77
2023/11/02 10:13:43;;;;;;;0.60;0.60;;;;;;;11.64;100.00;96906.88;5017325;28;20026;-78
2023/11/02 10:16:09;;;;;;;0.40;0.40;;;;;;;11.62;100.00;96909.88;5018187;28;20033;-74
2023/11/02 10:18:35;;;;;;;0.50;0.50;;;;;;;12.77;100.00;96906.91;5049567;28;20036;-77
2023/11/02 10:21:05;;;;;;;0.50;0.50;;;;;;;12.64;100.00;96902.19;5054604;28;20029;-74
2023/11/02 10:23:58;;;;;;;0.40;0.40;;;;;;;12.74;100.00;96904.78;5020512;28;20037;-75
2023/11/02 10:26:26;;;;;;;0.40;0.40;;;;;;;12.77;100.00;96896.94;5036091;28;20037;-78
2023/11/02 10:28:54;;;;;;;0.50;0.50;;;;;;;12.37;100.00;96908.06;5032582;28;20032;-77
2023/11/02 10:31:30;;;;;;;0.40;0.40;;;;;;;12.48;100.00;96901.50;5016568;28;20167;-78
2023/11/02 10:34:00;;;;;;;0.50;0.50;;;;;;;11.80;100.00;96908.44;5033250;28;20464;-78
2023/11/02 10:39:23;;;;;;;0.50;0.50;;;;;;;11.58;100.00;96900.72;5019763;28;20502;-78
2023/11/02 10:42:00;;;;;;;0.50;0.50;;;;;;;11.82;100.00;96919.69;5016921;28;20116;-78
2023/11/02 10:44:30;;;;;;;0.45;0.45;;;;;;;11.64;100.00;96912.25;5031605;28;20434;-78
2023/11/02 10:47:09;;;;;;;0.50;0.50;;;;;;;11.57;100.00;96904.50;4981614;28;20044;-77
2023/11/02 10:49:37;;;;;;;0.60;0.60;;;;;;;11.87;100.00;96927.78;5013148;28;20112;-78
2023/11/02 10:52:08;;;;;;;0.47;0.47;;;;;;;12.31;100.00;96929.66;4996583;28;20030;-78
2023/11/02 10:55:20;;;;;;;0.47;0.47;;;;;;;12.49;100.00;96921.97;5007625;28;20092;-77
2023/11/02 10:57:48;;;;;;;0.43;0.43;;;;;;;12.60;100.00;96933.50;5019840;28;20106;-76
2023/11/02 11:00:16;;;;;;;0.50;0.50;;;;;;;12.57;100.00;96934.88;5020086;28;20128;-75
2023/11/02 11:02:45;;;;;;;0.50;0.50;;;;;;;12.59;100.00;96937.25;5019254;28;20083;-77
2023/11/02 11:05:14;;;;;;;0.50;0.50;;;;;;;12.48;100.00;96939.22;5019266;28;20075;-77
2023/11/02 11:07:41;;;;;;;0.52;0.52;;;;;;;12.23;100.00;96938.34;5016893;28;20033;-76
2023/11/02 11:10:09;;;;;;;0.40;0.40;;;;;;;11.87;100.00;96932.38;5027232;28;20033;-76
2023/11/02 11:12:37;;;;;;;0.40;0.40;;;;;;;11.49;100.00;96937.38;5016838;28;20136;-75
2023/11/02 11:15:02;;;;;;;0.40;0.40;;;;;;;10.59;100.00;96948.03;5016330;28;20132;-75
2023/11/02 11:17:29;;;;;;;0.50;0.50;;;;;;;9.79;100.00;96943.06;5015920;28;20104;-77
2023/11/02 11:19:55;;;;;;;0.40;0.40;;;;;;;9.44;100.00;96949.91;5032447;28;20025;-77
2023/11/02 11:22:27;;;;;;;0.40;0.40;;;;;;;9.31;100.00;96947.69;5033462;28;20105;-76
2023/11/02 11:25:03;;;;;;;0.40;0.40;;;;;;;9.28;100.00;96942.88;5032991;28;20409;-77
2023/11/02 11:27:35;;;;;;;0.43;0.43;;;;;;;9.56;100.00;96949.72;5016551;28;20542;-77
2023/11/02 11:30:04;;;;;;;0.47;0.47;;;;;;;9.79;100.00;96954.63;5032404;28;20433;-77
2023/11/02 11:32:31;;;;;;;0.45;0.45;;;;;;;10.00;100.00;96947.44;5000747;28;20033;-77
2023/11/02 11:35:03;;;;;;;0.50;0.50;;;;;;;10.38;100.00;96964.16;5032547;28;20030;-77
2023/11/02 11:40:20;;;;;;;8.10;1.58;;;;;;;10.87;100.00;96962.78;5016656;28;20432;-77
2023/11/02 11:42:55;;;;;;;12.20;2.30;;;;;;;10.42;100.00;96973.25;5015909;28;20072;-77
2023/11/02 11:45:34;;;;;;;9.38;2.00;;;;;;;10.09;100.00;96961.13;5015895;28;20032;-77
2023/11/02 11:48:05;;;;;;;7.70;1.98;;;;;;;10.38;100.00;96966.84;5015556;28;20025;-75
2023/11/02 11:50:35;;;;;;;9.35;2.22;;;;;;;11.33;100.00;96962.72;5032208;28;20029;-75
2023/11/02 11:53:27;;;;;;;8.88;2.33;;;;;;;11.36;100.00;96973.72;5032296;28;20095;-77
2023/11/02 11:55:55;;;;;;;8.68;1.70;;;;;;;10.71;100.00;96972.75;5046798;28;20053;-75